createdAt,value
2017-12-25T00:00:07.294Z,0
2017-12-25T00:00:48.218Z,0
2017-12-25T00:01:28.668Z,0
2017-12-25T00:02:09.080Z,0
2017-12-25T00:02:49.526Z,0
2017-12-25T00:03:29.886Z,0
2017-12-25T00:04:10.298Z,0
2017-12-25T00:04:50.832Z,0
2017-12-25T00:05:31.197Z,0
2017-12-25T00:06:11.729Z,0
2017-12-25T00:06:52.125Z,0
2017-12-25T00:07:32.573Z,0
2017-12-25T00:08:13.282Z,0
2017-12-25T00:08:53.731Z,0
2017-12-25T00:09:34.605Z,0
2017-12-25T00:10:14.763Z,0
2017-12-25T00:10:57.649Z,0
2017-12-25T00:11:38.194Z,0
2017-12-25T00:12:18.456Z,0
2017-12-25T00:12:59.339Z,0
2017-12-25T00:13:40.468Z,0
2017-12-25T00:14:22.183Z,0
2017-12-25T00:15:04.045Z,0
2017-12-25T00:15:44.925Z,0
2017-12-25T00:16:25.276Z,0
2017-12-25T00:17:05.664Z,0
2017-12-25T00:17:46.182Z,0
2017-12-25T00:18:27.401Z,0
2017-12-25T00:19:08.073Z,0
2017-12-25T00:19:48.509Z,0
2017-12-25T00:20:29.152Z,0
2017-12-25T00:21:09.586Z,0
2017-12-25T00:21:50.571Z,0
2017-12-25T00:22:30.766Z,0
2017-12-25T00:23:11.468Z,0
2017-12-25T00:23:52.503Z,0
2017-12-25T00:24:32.954Z,0
2017-12-25T00:25:13.941Z,0
2017-12-25T00:25:54.820Z,0
2017-12-25T00:26:35.566Z,0
2017-12-25T00:27:16.160Z,0
2017-12-25T00:27:56.664Z,0
2017-12-25T00:28:38.181Z,0
2017-12-25T00:29:19.454Z,0
2017-12-25T00:29:59.931Z,0
2017-12-25T00:32:21.606Z,0
2017-12-25T00:33:02.269Z,0
2017-12-25T00:33:42.407Z,0
2017-12-25T00:34:22.947Z,0
2017-12-25T00:35:03.648Z,0
2017-12-25T00:35:44.412Z,0
2017-12-25T00:36:25.007Z,0
2017-12-25T00:37:06.041Z,0
2017-12-25T00:37:46.738Z,0
2017-12-25T00:38:27.148Z,0
2017-12-25T00:39:07.878Z,0
2017-12-25T00:39:48.049Z,0
2017-12-25T00:40:28.784Z,0
2017-12-25T00:41:09.337Z,0
2017-12-25T00:43:55.535Z,0
2017-12-25T00:45:47.594Z,0
2017-12-25T00:46:28.044Z,0
2017-12-25T00:47:09.316Z,0
2017-12-25T00:47:49.780Z,0
2017-12-25T00:48:30.166Z,0
2017-12-25T00:49:10.914Z,0
2017-12-25T00:49:52.155Z,0
2017-12-25T00:50:32.429Z,0
2017-12-25T00:51:12.777Z,0
2017-12-25T00:51:53.186Z,0
2017-12-25T00:52:33.605Z,0
2017-12-25T00:53:14.199Z,0
2017-12-25T00:53:54.821Z,0
2017-12-25T00:54:35.162Z,0
2017-12-25T00:55:16.344Z,0
2017-12-25T00:55:57.778Z,0
2017-12-25T00:56:38.636Z,0
2017-12-25T00:57:19.496Z,0
2017-12-25T00:57:59.524Z,0
2017-12-25T00:58:39.905Z,0
2017-12-25T00:59:20.364Z,0
2017-12-25T01:00:01.780Z,0
2017-12-25T01:00:42.227Z,0
2017-12-25T01:03:18.075Z,0
2017-12-25T01:03:59.145Z,0
2017-12-25T01:04:40.144Z,0
2017-12-25T01:05:20.362Z,0
2017-12-25T01:06:00.878Z,0
2017-12-25T01:06:41.314Z,0
2017-12-25T01:07:21.865Z,0
2017-12-25T01:08:03.184Z,0
2017-12-25T01:08:43.472Z,0
2017-12-25T01:09:24.192Z,0
2017-12-25T01:10:05.979Z,0
2017-12-25T01:10:46.431Z,0
2017-12-25T01:11:26.738Z,0
2017-12-25T01:12:07.347Z,0
2017-12-25T01:12:47.769Z,0
2017-12-25T01:13:28.153Z,0
2017-12-25T01:14:08.771Z,0
2017-12-25T01:14:49.723Z,0
2017-12-25T01:15:31.426Z,0
2017-12-25T01:16:12.401Z,0
2017-12-25T01:16:54.541Z,0
2017-12-25T01:17:35.102Z,0
2017-12-25T01:20:11.590Z,0
2017-12-25T01:20:50.467Z,0
2017-12-25T01:21:31.136Z,0
2017-12-25T01:22:11.376Z,0
2017-12-25T01:22:51.937Z,0
2017-12-25T01:23:32.294Z,0
2017-12-25T01:24:12.730Z,0
2017-12-25T01:24:53.256Z,0
2017-12-25T01:25:33.531Z,0
2017-12-25T01:26:13.902Z,0
2017-12-25T01:26:54.438Z,0
2017-12-25T01:27:35.223Z,0
2017-12-25T01:28:15.612Z,0
2017-12-25T01:28:56.036Z,0
2017-12-25T01:29:36.552Z,0
2017-12-25T01:30:16.980Z,0
2017-12-25T01:30:57.241Z,0
2017-12-25T01:31:37.936Z,0
2017-12-25T01:32:21.566Z,0
2017-12-25T01:33:01.907Z,0
2017-12-25T01:33:42.342Z,0
2017-12-25T01:34:23.197Z,0
2017-12-25T01:35:03.606Z,0
2017-12-25T01:35:44.102Z,0
2017-12-25T01:36:26.596Z,0
2017-12-25T01:37:07.469Z,0
2017-12-25T01:37:48.060Z,0
2017-12-25T01:38:28.472Z,0
2017-12-25T01:39:08.812Z,0
2017-12-25T01:39:50.300Z,0
2017-12-25T01:43:49.210Z,0
2017-12-25T01:44:31.101Z,0
2017-12-25T01:45:13.474Z,0
2017-12-25T01:45:53.625Z,0
2017-12-25T01:46:33.989Z,0
2017-12-25T01:49:05.535Z,0
2017-12-25T01:49:46.760Z,0
2017-12-25T01:50:27.617Z,0
2017-12-25T01:51:07.804Z,0
2017-12-25T01:51:48.975Z,0
2017-12-25T01:52:29.483Z,0
2017-12-25T01:53:09.802Z,0
2017-12-25T01:53:50.249Z,0
2017-12-25T01:54:30.671Z,0
2017-12-25T01:55:11.574Z,0
2017-12-25T01:55:53.761Z,0
2017-12-25T01:56:35.071Z,0
2017-12-25T01:57:15.116Z,0
2017-12-25T01:57:55.609Z,0
2017-12-25T01:58:35.971Z,0
2017-12-25T01:59:16.406Z,0
2017-12-25T01:59:57.452Z,0
2017-12-25T02:00:37.940Z,0
2017-12-25T02:01:18.509Z,0
2017-12-25T02:01:59.371Z,0
2017-12-25T02:02:40.556Z,0
2017-12-25T02:03:20.989Z,0
2017-12-25T02:04:01.431Z,0
2017-12-25T02:04:41.798Z,0
2017-12-25T02:05:22.269Z,0
2017-12-25T02:06:02.635Z,0
2017-12-25T02:06:43.064Z,0
2017-12-25T02:07:23.632Z,0
2017-12-25T02:08:04.038Z,0
2017-12-25T02:08:44.471Z,0
2017-12-25T02:09:24.924Z,0
2017-12-25T02:10:05.301Z,0
2017-12-25T02:10:46.126Z,0
2017-12-25T02:11:26.641Z,0
2017-12-25T02:12:07.020Z,0
2017-12-25T02:12:47.489Z,0
2017-12-25T02:13:27.885Z,0
2017-12-25T02:14:08.834Z,0
2017-12-25T02:14:49.641Z,0
2017-12-25T02:15:30.137Z,0
2017-12-25T02:16:11.119Z,0
2017-12-25T02:16:52.192Z,0
2017-12-25T02:17:33.252Z,0
2017-12-25T02:18:13.684Z,0
2017-12-25T02:18:54.561Z,0
2017-12-25T02:19:35.278Z,0
2017-12-25T02:20:15.499Z,0
2017-12-25T02:20:55.995Z,0
2017-12-25T02:21:36.547Z,0
2017-12-25T02:22:17.154Z,0
2017-12-25T02:22:57.723Z,0
2017-12-25T02:23:38.112Z,0
2017-12-25T02:24:18.589Z,0
2017-12-25T02:24:59.529Z,0
2017-12-25T02:25:40.391Z,0
2017-12-25T02:26:21.457Z,0
2017-12-25T02:27:02.365Z,0
2017-12-25T02:27:42.617Z,0
2017-12-25T02:28:23.498Z,0
2017-12-25T02:29:04.074Z,0
2017-12-25T02:29:44.711Z,0
2017-12-25T02:30:25.860Z,0
2017-12-25T02:31:06.855Z,0
2017-12-25T02:31:47.058Z,0
2017-12-25T02:32:27.393Z,0
2017-12-25T02:33:08.120Z,0
2017-12-25T02:35:15.069Z,0
2017-12-25T02:37:27.680Z,0
2017-12-25T02:38:08.066Z,0
2017-12-25T02:38:48.635Z,0
2017-12-25T02:39:29.258Z,0
2017-12-25T02:40:09.512Z,0
2017-12-25T02:40:50.369Z,0
2017-12-25T02:41:30.924Z,0
2017-12-25T02:42:11.399Z,0
2017-12-25T02:42:51.832Z,0
2017-12-25T02:43:32.123Z,0
2017-12-25T02:44:13.865Z,0
2017-12-25T02:44:53.968Z,0
2017-12-25T02:45:34.486Z,0
2017-12-25T02:46:14.936Z,0
2017-12-25T02:46:55.309Z,0
2017-12-25T02:47:35.872Z,0
2017-12-25T02:48:16.268Z,0
2017-12-25T02:48:56.722Z,0
2017-12-25T02:49:37.017Z,0
2017-12-25T02:50:17.475Z,0
2017-12-25T02:50:57.839Z,0
2017-12-25T02:51:38.293Z,0
2017-12-25T02:52:18.654Z,0
2017-12-25T02:52:59.091Z,0
2017-12-25T02:53:39.434Z,0
2017-12-25T02:54:19.854Z,0
2017-12-25T02:55:00.297Z,0
2017-12-25T02:55:40.727Z,0
2017-12-25T02:56:21.090Z,0
2017-12-25T02:57:01.768Z,0
2017-12-25T02:57:42.300Z,0
2017-12-25T02:58:22.822Z,0
2017-12-25T02:59:03.476Z,0
2017-12-25T02:59:43.918Z,0
2017-12-25T03:00:24.237Z,0
2017-12-25T03:01:04.796Z,0
2017-12-25T03:01:45.327Z,0
2017-12-25T03:02:25.863Z,0
2017-12-25T03:03:06.143Z,0
2017-12-25T03:05:24.219Z,0
2017-12-25T03:06:04.795Z,0
2017-12-25T03:06:45.055Z,0
2017-12-25T03:07:25.461Z,0
2017-12-25T03:08:05.835Z,0
2017-12-25T03:08:46.231Z,0
2017-12-25T03:09:26.686Z,0
2017-12-25T03:10:07.197Z,0
2017-12-25T03:10:48.021Z,0
2017-12-25T03:11:29.809Z,0
2017-12-25T03:12:10.218Z,0
2017-12-25T03:12:50.803Z,0
2017-12-25T03:13:31.541Z,0
2017-12-25T03:14:11.839Z,0
2017-12-25T03:14:52.231Z,0
2017-12-25T03:15:32.614Z,0
2017-12-25T03:16:13.083Z,0
2017-12-25T03:16:53.455Z,0
2017-12-25T03:17:33.831Z,0
2017-12-25T03:18:14.255Z,0
2017-12-25T03:18:56.027Z,0
2017-12-25T03:19:36.313Z,0
2017-12-25T03:20:17.278Z,0
2017-12-25T03:20:59.273Z,0
2017-12-25T03:21:40.376Z,0
2017-12-25T03:22:19.835Z,0
2017-12-25T03:23:00.022Z,0
2017-12-25T03:23:40.572Z,0
2017-12-25T03:24:20.891Z,0
2017-12-25T03:25:01.757Z,0
2017-12-25T03:25:42.025Z,0
2017-12-25T03:26:22.438Z,0
2017-12-25T03:27:02.866Z,0
2017-12-25T03:27:44.880Z,0
2017-12-25T03:28:25.165Z,0
2017-12-25T03:29:05.700Z,0
2017-12-25T03:29:46.212Z,0
2017-12-25T03:30:26.454Z,0
2017-12-25T03:31:06.992Z,0
2017-12-25T03:31:47.349Z,0
2017-12-25T03:32:27.768Z,0
2017-12-25T03:33:08.424Z,0
2017-12-25T03:33:48.716Z,0
2017-12-25T03:34:29.070Z,0
2017-12-25T03:35:09.497Z,0
2017-12-25T03:35:49.931Z,0
2017-12-25T03:36:30.313Z,0
2017-12-25T03:37:11.081Z,0
2017-12-25T03:37:52.039Z,0
2017-12-25T03:38:32.487Z,0
2017-12-25T03:39:12.925Z,0
2017-12-25T03:39:53.255Z,0
2017-12-25T03:40:34.024Z,0
2017-12-25T03:41:14.162Z,0
2017-12-25T03:41:54.701Z,0
2017-12-25T03:42:35.045Z,0
2017-12-25T03:43:15.434Z,0
2017-12-25T03:43:55.879Z,0
2017-12-25T03:44:36.286Z,0
2017-12-25T03:45:16.741Z,0
2017-12-25T03:45:57.143Z,0
2017-12-25T03:46:37.608Z,0
2017-12-25T03:47:18.028Z,0
2017-12-25T03:47:58.416Z,0
2017-12-25T03:48:38.878Z,0
2017-12-25T03:49:19.247Z,0
2017-12-25T03:49:59.649Z,0
2017-12-25T03:50:40.009Z,0
2017-12-25T03:51:20.428Z,0
2017-12-25T03:52:00.839Z,0
2017-12-25T03:52:41.221Z,0
2017-12-25T03:53:21.633Z,0
2017-12-25T03:54:02.026Z,0
2017-12-25T03:54:42.423Z,0
2017-12-25T03:55:22.847Z,0
2017-12-25T03:56:03.357Z,0
2017-12-25T03:56:43.687Z,0
2017-12-25T03:57:24.084Z,0
2017-12-25T03:58:04.518Z,0
2017-12-25T03:58:45.009Z,0
2017-12-25T03:59:25.384Z,0
2017-12-25T04:00:05.771Z,0
2017-12-25T04:00:46.119Z,0
2017-12-25T04:01:26.633Z,0
2017-12-25T04:42:03.893Z,0
2017-12-25T04:42:43.945Z,0
2017-12-25T04:43:24.378Z,0
2017-12-25T04:44:04.840Z,0
2017-12-25T04:44:45.243Z,0
2017-12-25T04:45:25.577Z,0
2017-12-25T04:46:06.049Z,0
2017-12-25T04:46:46.441Z,0
2017-12-25T04:47:26.869Z,0
2017-12-25T04:48:07.187Z,0
2017-12-25T04:48:48.151Z,0
2017-12-25T04:49:28.656Z,0
2017-12-25T04:50:09.490Z,0
2017-12-25T04:50:49.657Z,0
2017-12-25T04:51:30.097Z,0
2017-12-25T04:52:10.501Z,0
2017-12-25T04:52:50.893Z,0
2017-12-25T04:53:31.395Z,0
2017-12-25T04:54:11.771Z,0
2017-12-25T04:54:52.254Z,0
2017-12-25T04:55:32.954Z,0
2017-12-25T04:56:13.380Z,0
2017-12-25T04:56:53.786Z,0
2017-12-25T04:57:34.595Z,0
2017-12-25T04:58:14.941Z,0
2017-12-25T04:58:55.452Z,0
2017-12-25T04:59:35.848Z,0
2017-12-25T05:00:16.773Z,0
2017-12-25T05:00:57.503Z,0
2017-12-25T05:01:39.035Z,0
2017-12-25T05:02:20.011Z,0
2017-12-25T05:03:00.349Z,0
2017-12-25T05:03:40.805Z,0
2017-12-25T05:04:23.309Z,0
2017-12-25T05:05:03.701Z,0
2017-12-25T05:05:44.150Z,0
2017-12-25T05:06:25.113Z,0
2017-12-25T05:07:06.067Z,0
2017-12-25T05:07:46.355Z,0
2017-12-25T05:08:27.055Z,0
2017-12-25T05:09:07.184Z,0
2017-12-25T05:09:47.633Z,0
2017-12-25T05:10:28.018Z,0
2017-12-25T05:11:08.324Z,0
2017-12-25T05:11:48.773Z,0
2017-12-25T05:12:29.343Z,0
2017-12-25T05:13:09.699Z,0
2017-12-25T05:13:50.104Z,0
2017-12-25T05:14:30.625Z,0
2017-12-25T05:15:11.057Z,0
2017-12-25T05:15:51.387Z,0
2017-12-25T05:16:31.789Z,0
2017-12-25T05:17:12.373Z,0
2017-12-25T05:17:52.725Z,0
2017-12-25T05:18:32.986Z,0
2017-12-25T05:19:13.644Z,0
2017-12-25T05:19:54.308Z,0
2017-12-25T05:20:34.539Z,0
2017-12-25T05:21:15.109Z,0
2017-12-25T05:21:55.920Z,0
2017-12-25T05:22:37.236Z,0
2017-12-25T05:23:18.039Z,0
2017-12-25T05:23:58.470Z,0
2017-12-25T05:24:38.877Z,0
2017-12-25T05:25:19.407Z,0
2017-12-25T05:25:59.889Z,0
2017-12-25T05:26:40.300Z,0
2017-12-25T05:27:20.619Z,0
2017-12-25T05:28:01.194Z,0
2017-12-25T05:28:42.056Z,0
2017-12-25T05:29:22.223Z,0
2017-12-25T05:30:02.431Z,0
2017-12-25T05:30:42.884Z,0
2017-12-25T05:31:23.255Z,0
2017-12-25T05:32:03.689Z,0
2017-12-25T05:32:44.089Z,0
2017-12-25T05:33:24.517Z,0
2017-12-25T05:34:04.822Z,0
2017-12-25T05:34:45.218Z,0
2017-12-25T05:35:25.606Z,0
2017-12-25T05:36:06.328Z,0
2017-12-25T05:36:46.818Z,0
2017-12-25T05:37:27.161Z,0
2017-12-25T05:38:07.572Z,0
2017-12-25T05:40:25.723Z,0
2017-12-25T05:41:06.430Z,0
2017-12-25T05:41:46.804Z,0
2017-12-25T05:42:27.300Z,0
2017-12-25T05:43:07.779Z,0
2017-12-25T05:43:48.047Z,0
2017-12-25T05:44:28.499Z,0
2017-12-25T05:45:09.861Z,0
2017-12-25T05:45:50.365Z,0
2017-12-25T05:46:30.798Z,0
2017-12-25T05:47:11.327Z,0
2017-12-25T05:47:52.167Z,0
2017-12-25T05:48:32.821Z,0
2017-12-25T05:49:13.783Z,0
2017-12-25T05:49:54.481Z,0
2017-12-25T05:50:35.147Z,0
2017-12-25T05:51:15.869Z,0
2017-12-25T05:51:56.318Z,0
2017-12-25T05:52:36.784Z,0
2017-12-25T05:53:17.073Z,0
2017-12-25T05:53:58.169Z,0
2017-12-25T05:54:38.670Z,0
2017-12-25T05:55:19.508Z,0
2017-12-25T05:56:00.074Z,0
2017-12-25T05:56:40.997Z,0
2017-12-25T05:57:22.011Z,0
2017-12-25T05:58:03.590Z,0
2017-12-25T05:58:44.448Z,0
2017-12-25T05:59:25.227Z,0
2017-12-25T06:00:05.650Z,0
2017-12-25T06:00:46.007Z,0
2017-12-25T06:01:26.533Z,0
2017-12-25T06:02:06.935Z,0
2017-12-25T06:02:48.274Z,0
2017-12-25T06:03:28.420Z,0
2017-12-25T06:04:08.785Z,0
2017-12-25T06:04:49.414Z,0
2017-12-25T06:06:48.261Z,0
2017-12-25T06:07:28.095Z,0
2017-12-25T06:08:08.475Z,0
2017-12-25T06:08:48.894Z,0
2017-12-25T06:09:29.972Z,0
2017-12-25T06:10:10.723Z,0
2017-12-25T06:10:51.360Z,0
2017-12-25T06:11:31.808Z,0
2017-12-25T06:12:12.240Z,0
2017-12-25T06:12:52.788Z,0
2017-12-25T06:13:33.242Z,0
2017-12-25T06:14:13.636Z,0
2017-12-25T06:14:53.972Z,0
2017-12-25T06:15:34.436Z,0
2017-12-25T06:16:14.794Z,0
2017-12-25T06:16:55.149Z,0
2017-12-25T06:17:35.602Z,0
2017-12-25T06:18:16.050Z,0
2017-12-25T06:18:56.385Z,0
2017-12-25T06:19:36.838Z,0
2017-12-25T06:20:17.165Z,0
2017-12-25T06:20:57.533Z,0
2017-12-25T06:21:37.937Z,0
2017-12-25T06:22:18.285Z,0
2017-12-25T06:22:58.697Z,0
2017-12-25T06:23:39.547Z,0
2017-12-25T06:24:20.007Z,0
2017-12-25T06:25:00.390Z,0
2017-12-25T06:25:40.758Z,0
2017-12-25T06:26:21.123Z,0
2017-12-25T06:27:01.512Z,0
2017-12-25T06:27:42.002Z,0
2017-12-25T06:28:22.371Z,0
2017-12-25T06:29:02.875Z,0
2017-12-25T06:29:43.268Z,0
2017-12-25T06:30:23.665Z,0
2017-12-25T06:31:04.146Z,0
2017-12-25T06:31:44.580Z,0
2017-12-25T06:32:25.308Z,0
2017-12-25T06:33:06.309Z,0
2017-12-25T06:33:46.725Z,0
2017-12-25T06:34:27.412Z,0
2017-12-25T06:35:07.752Z,0
2017-12-25T06:35:48.092Z,0
2017-12-25T06:36:28.523Z,0
2017-12-25T06:37:09.572Z,0
2017-12-25T06:37:50.352Z,0
2017-12-25T06:38:30.807Z,0
2017-12-25T06:39:11.703Z,0
2017-12-25T06:39:52.483Z,0
2017-12-25T06:40:32.997Z,0
2017-12-25T06:41:13.493Z,0
2017-12-25T06:41:54.061Z,0
2017-12-25T06:42:35.205Z,0
2017-12-25T06:43:15.594Z,0
2017-12-25T06:43:56.021Z,0
2017-12-25T06:44:37.215Z,0
2017-12-25T06:45:17.246Z,0
2017-12-25T06:45:57.775Z,0
2017-12-25T06:46:38.726Z,0
2017-12-25T06:47:19.741Z,0
2017-12-25T06:47:59.702Z,0
2017-12-25T06:48:40.069Z,0
2017-12-25T06:49:20.508Z,0
2017-12-25T06:50:01.051Z,0
2017-12-25T06:50:41.693Z,0
2017-12-25T06:51:22.733Z,0
2017-12-25T06:52:03.267Z,0
2017-12-25T06:52:43.566Z,0
2017-12-25T06:53:24.269Z,0
2017-12-25T06:54:04.494Z,0
2017-12-25T06:54:46.695Z,0
2017-12-25T06:55:27.058Z,0
2017-12-25T06:56:07.571Z,0
2017-12-25T06:56:48.126Z,0
2017-12-25T06:57:28.591Z,0
2017-12-25T06:58:09.072Z,0
2017-12-25T06:58:49.444Z,0
2017-12-25T06:59:29.859Z,0
2017-12-25T07:00:10.313Z,0
2017-12-25T07:00:50.911Z,0
2017-12-25T07:01:31.266Z,0
2017-12-25T07:02:11.620Z,0
2017-12-25T07:02:51.959Z,0
2017-12-25T07:03:32.353Z,0
2017-12-25T07:04:12.751Z,0
2017-12-25T07:04:53.165Z,0
2017-12-25T07:05:33.584Z,0
2017-12-25T07:06:14.199Z,0
2017-12-25T07:06:54.426Z,0
2017-12-25T07:07:34.815Z,0
2017-12-25T07:08:15.232Z,0
2017-12-25T07:08:55.563Z,0
2017-12-25T07:09:35.958Z,0
2017-12-25T07:10:16.894Z,0
2017-12-25T07:10:57.065Z,0
2017-12-25T07:11:37.479Z,0
2017-12-25T07:12:17.870Z,0
2017-12-25T07:12:58.321Z,0
2017-12-25T07:13:38.719Z,0
2017-12-25T07:14:20.952Z,0
2017-12-25T07:15:01.259Z,0
2017-12-25T07:15:41.730Z,4
2017-12-25T07:16:22.104Z,0
2017-12-25T07:17:02.456Z,0
2017-12-25T07:17:43.050Z,0
2017-12-25T07:18:23.747Z,0
2017-12-25T07:19:04.884Z,0
2017-12-25T07:19:45.412Z,4
2017-12-25T07:20:25.716Z,4
2017-12-25T07:21:06.166Z,4
2017-12-25T07:21:46.748Z,4
2017-12-25T07:22:27.244Z,0
2017-12-25T07:23:08.163Z,4
2017-12-25T07:23:48.587Z,4
2017-12-25T07:24:28.935Z,4
2017-12-25T07:25:09.354Z,4
2017-12-25T07:25:49.762Z,4
2017-12-25T07:26:30.286Z,4
2017-12-25T07:27:10.508Z,8
2017-12-25T07:27:51.347Z,4
2017-12-25T07:28:32.031Z,8
2017-12-25T07:29:13.250Z,8
2017-12-25T07:29:53.653Z,4
2017-12-25T07:30:34.023Z,8
2017-12-25T07:31:14.470Z,8
2017-12-25T07:31:54.857Z,8
2017-12-25T07:32:35.258Z,8
2017-12-25T07:33:15.598Z,12
2017-12-25T07:33:56.090Z,12
2017-12-25T07:34:36.497Z,12
2017-12-25T07:35:17.026Z,12
2017-12-25T07:35:57.356Z,12
2017-12-25T07:36:37.729Z,12
2017-12-25T07:37:18.491Z,12
2017-12-25T07:37:58.938Z,16
2017-12-25T07:38:39.399Z,12
2017-12-25T07:39:19.751Z,16
2017-12-25T07:40:00.196Z,16
2017-12-25T07:40:41.009Z,16
2017-12-25T07:41:21.232Z,16
2017-12-25T07:42:01.836Z,16
2017-12-25T07:42:42.245Z,16
2017-12-25T07:43:22.883Z,20
2017-12-25T07:44:03.232Z,20
2017-12-25T07:44:43.950Z,20
2017-12-25T07:45:24.412Z,24
2017-12-25T07:46:04.665Z,24
2017-12-25T07:46:45.073Z,24
2017-12-25T07:47:25.586Z,28
2017-12-25T07:48:06.087Z,28
2017-12-25T07:48:46.659Z,28
2017-12-25T07:49:27.392Z,32
2017-12-25T07:50:09.118Z,32
2017-12-25T07:50:49.085Z,32
2017-12-25T07:51:29.530Z,32
2017-12-25T07:52:09.976Z,32
2017-12-25T07:52:51.621Z,36
2017-12-25T07:53:32.121Z,36
2017-12-25T07:54:12.476Z,32
2017-12-25T07:54:52.962Z,36
2017-12-25T07:55:33.337Z,36
2017-12-25T07:56:14.049Z,40
2017-12-25T07:56:54.313Z,40
2017-12-25T07:57:34.725Z,36
2017-12-25T07:58:15.089Z,40
2017-12-25T07:58:55.523Z,40
2017-12-25T07:59:36.177Z,40
2017-12-25T08:00:16.400Z,36
2017-12-25T08:00:56.684Z,40
2017-12-25T08:02:56.887Z,40
2017-12-25T08:03:37.158Z,40
2017-12-25T08:04:17.646Z,44
2017-12-25T08:04:58.019Z,40
2017-12-25T08:05:38.419Z,44
2017-12-25T08:06:18.964Z,44
2017-12-25T08:06:59.498Z,48
2017-12-25T08:07:39.841Z,52
2017-12-25T08:08:20.468Z,56
2017-12-25T08:09:00.750Z,60
2017-12-25T08:09:41.214Z,64
2017-12-25T08:10:21.527Z,64
2017-12-25T08:11:01.958Z,72
2017-12-25T08:11:42.388Z,84
2017-12-25T08:12:22.828Z,108
2017-12-25T08:13:03.233Z,108
2017-12-25T08:13:43.678Z,96
2017-12-25T08:14:24.039Z,92
2017-12-25T08:15:04.634Z,100
2017-12-25T08:15:44.985Z,100
2017-12-25T08:16:25.512Z,96
2017-12-25T08:17:05.950Z,84
2017-12-25T08:17:46.345Z,84
2017-12-25T08:18:26.829Z,80
2017-12-25T08:19:07.186Z,76
2017-12-25T08:19:47.656Z,76
2017-12-25T08:20:27.994Z,80
2017-12-25T08:21:08.430Z,80
2017-12-25T08:21:48.812Z,92
2017-12-25T08:22:29.242Z,92
2017-12-25T08:23:09.604Z,92
2017-12-25T08:23:50.114Z,92
2017-12-25T08:24:30.570Z,92
2017-12-25T08:25:10.869Z,88
2017-12-25T08:25:51.268Z,92
2017-12-25T08:26:31.812Z,92
2017-12-25T08:27:12.226Z,100
2017-12-25T08:27:52.660Z,104
2017-12-25T08:28:33.088Z,108
2017-12-25T08:29:13.526Z,108
2017-12-25T08:29:56.784Z,108
2017-12-25T08:30:37.333Z,116
2017-12-25T08:31:17.928Z,116
2017-12-25T08:33:57.422Z,104
2017-12-25T08:34:40.326Z,100
2017-12-25T08:35:20.735Z,100
2017-12-25T08:36:01.276Z,100
2017-12-25T08:36:42.265Z,104
2017-12-25T08:37:22.596Z,108
2017-12-25T08:38:03.021Z,112
2017-12-25T08:38:43.367Z,116
2017-12-25T08:39:23.950Z,120
2017-12-25T08:40:04.201Z,124
2017-12-25T08:40:44.647Z,120
2017-12-25T08:41:25.507Z,116
2017-12-25T08:42:05.757Z,116
2017-12-25T08:42:46.581Z,124
2017-12-25T08:43:26.588Z,136
2017-12-25T08:44:06.948Z,144
2017-12-25T08:44:47.552Z,164
2017-12-25T08:45:27.862Z,168
2017-12-25T08:46:08.204Z,168
2017-12-25T08:46:48.684Z,160
2017-12-25T08:47:28.992Z,164
2017-12-25T08:48:09.448Z,168
2017-12-25T08:48:49.874Z,160
2017-12-25T08:49:30.253Z,152
2017-12-25T08:50:10.687Z,148
2017-12-25T08:50:51.143Z,148
2017-12-25T08:51:31.602Z,148
2017-12-25T08:52:11.953Z,144
2017-12-25T08:52:52.380Z,144
2017-12-25T08:53:32.826Z,140
2017-12-25T08:54:13.234Z,140
2017-12-25T08:54:53.579Z,140
2017-12-25T08:55:34.058Z,140
2017-12-25T08:56:14.455Z,140
2017-12-25T08:56:54.901Z,144
2017-12-25T08:57:35.200Z,148
2017-12-25T08:58:15.651Z,156
2017-12-25T08:58:56.017Z,164
2017-12-25T08:59:36.413Z,176
2017-12-25T09:00:16.823Z,188
2017-12-25T09:00:57.198Z,196
2017-12-25T09:01:37.604Z,212
2017-12-25T09:02:18.065Z,208
2017-12-25T09:02:58.413Z,196
2017-12-25T09:03:38.859Z,184
2017-12-25T09:04:19.234Z,172
2017-12-25T09:04:59.619Z,184
2017-12-25T09:05:40.006Z,192
2017-12-25T09:06:20.438Z,212
2017-12-25T09:07:00.768Z,232
2017-12-25T09:07:41.192Z,244
2017-12-25T09:08:21.568Z,240
2017-12-25T09:09:01.930Z,240
2017-12-25T09:09:42.377Z,252
2017-12-25T09:10:22.790Z,260
2017-12-25T09:11:03.251Z,272
2017-12-25T09:11:43.640Z,264
2017-12-25T09:12:23.964Z,256
2017-12-25T09:13:04.382Z,256
2017-12-25T09:13:44.795Z,252
2017-12-25T09:14:25.201Z,248
2017-12-25T09:15:05.565Z,244
2017-12-25T09:15:45.924Z,236
2017-12-25T09:16:26.367Z,232
2017-12-25T09:17:06.751Z,224
2017-12-25T09:17:47.131Z,228
2017-12-25T09:18:27.479Z,236
2017-12-25T09:19:07.956Z,244
2017-12-25T09:19:48.395Z,248
2017-12-25T09:20:28.735Z,248
2017-12-25T09:21:09.149Z,252
2017-12-25T09:21:49.647Z,248
2017-12-25T09:22:29.963Z,264
2017-12-25T09:23:10.338Z,264
2017-12-25T09:23:50.737Z,268
2017-12-25T09:24:31.160Z,288
2017-12-25T09:25:11.584Z,312
2017-12-25T09:25:52.020Z,300
2017-12-25T09:26:32.336Z,288
2017-12-25T09:27:12.763Z,300
2017-12-25T09:27:53.270Z,292
2017-12-25T09:28:33.602Z,292
2017-12-25T09:29:14.063Z,308
2017-12-25T09:29:54.520Z,316
2017-12-25T09:30:34.903Z,320
2017-12-25T09:31:15.242Z,316
2017-12-25T09:31:55.611Z,308
2017-12-25T09:32:36.018Z,300
2017-12-25T09:33:16.457Z,296
2017-12-25T09:33:56.839Z,296
2017-12-25T09:34:37.217Z,292
2017-12-25T09:35:18.216Z,276
2017-12-25T09:35:58.402Z,260
2017-12-25T09:36:38.856Z,252
2017-12-25T09:37:19.195Z,256
2017-12-25T09:37:59.587Z,276
2017-12-25T09:38:40.057Z,284
2017-12-25T09:39:20.482Z,308
2017-12-25T09:40:00.813Z,336
2017-12-25T09:40:41.247Z,360
2017-12-25T09:41:21.604Z,364
2017-12-25T09:42:02.003Z,340
2017-12-25T09:42:42.373Z,332
2017-12-25T09:43:22.882Z,324
2017-12-25T09:44:03.209Z,312
2017-12-25T09:44:43.685Z,292
2017-12-25T09:45:24.108Z,280
2017-12-25T09:46:04.478Z,268
2017-12-25T09:46:44.864Z,268
2017-12-25T09:47:25.257Z,264
2017-12-25T09:48:05.667Z,276
2017-12-25T09:48:46.045Z,296
2017-12-25T09:51:06.044Z,300
2017-12-25T09:51:46.449Z,300
2017-12-25T09:52:26.795Z,308
2017-12-25T09:53:07.293Z,308
2017-12-25T09:53:47.666Z,316
2017-12-25T09:54:30.177Z,320
2017-12-25T09:55:10.651Z,316
2017-12-25T09:55:51.041Z,320
2017-12-25T09:56:33.644Z,320
2017-12-25T09:57:13.802Z,324
2017-12-25T09:57:54.166Z,324
2017-12-25T09:58:34.662Z,324
2017-12-25T09:59:15.069Z,332
2017-12-25T09:59:55.662Z,348
2017-12-25T10:00:35.928Z,356
2017-12-25T10:01:16.417Z,364
2017-12-25T10:01:56.711Z,360
2017-12-25T10:02:37.195Z,348
2017-12-25T10:03:17.539Z,340
2017-12-25T10:42:06.407Z,588
2017-12-25T10:42:55.090Z,560
2017-12-25T10:43:45.222Z,580
2017-12-25T10:44:34.487Z,620
2017-12-25T10:45:25.637Z,680
2017-12-25T10:49:02.906Z,840
2017-12-25T10:49:43.148Z,860
2017-12-25T10:50:24.583Z,888
2017-12-25T10:51:04.964Z,924
2017-12-25T10:51:46.720Z,1144
2017-12-25T10:52:27.229Z,988
2017-12-25T10:53:08.198Z,996
2017-12-25T10:53:48.380Z,1008
2017-12-25T10:54:28.794Z,1040
2017-12-25T10:55:09.281Z,1068
2017-12-25T10:55:51.936Z,1040
2017-12-25T10:56:35.266Z,976
2017-12-25T10:57:15.698Z,1004
2017-12-25T10:57:57.157Z,1020
2017-12-25T10:58:37.726Z,1084
2017-12-25T10:59:18.937Z,1152
2017-12-25T11:00:00.242Z,1204
2017-12-25T11:00:45.009Z,1204
2017-12-25T11:01:26.968Z,1248
2017-12-25T11:02:09.030Z,1276
2017-12-25T11:02:49.253Z,1220
2017-12-25T11:03:29.849Z,1264
2017-12-25T11:04:10.228Z,1220
2017-12-25T11:04:51.005Z,1232
2017-12-25T11:05:33.641Z,1236
2017-12-25T11:06:13.960Z,1140
2017-12-25T11:06:54.363Z,1032
2017-12-25T11:07:34.641Z,1016
2017-12-25T11:08:15.068Z,1024
2017-12-25T11:08:57.456Z,1080
2017-12-25T11:09:40.487Z,1128
2017-12-25T11:10:26.835Z,1184
2017-12-25T11:11:05.973Z,1180
2017-12-25T11:11:47.076Z,1196
2017-12-25T11:12:27.337Z,1524
2017-12-25T11:13:07.704Z,1432
2017-12-25T11:13:49.268Z,1276
2017-12-25T11:14:29.837Z,1212
2017-12-25T11:15:10.189Z,1280
2017-12-25T11:15:51.235Z,1100
2017-12-25T11:16:31.637Z,1076
2017-12-25T11:17:12.055Z,1112
2017-12-25T11:17:53.518Z,1176
2017-12-25T11:18:34.205Z,1288
2017-12-25T11:19:15.291Z,1432
2017-12-25T11:19:56.064Z,1344
2017-12-25T11:20:37.326Z,1212
2017-12-25T11:21:17.812Z,1128
2017-12-25T11:21:58.454Z,1096
2017-12-25T11:22:38.952Z,1040
2017-12-25T11:23:19.217Z,1044
2017-12-25T11:24:01.215Z,1040
2017-12-25T11:24:40.520Z,1040
2017-12-25T11:25:20.977Z,1012
2017-12-25T11:26:01.730Z,988
2017-12-25T11:26:44.008Z,968
2017-12-25T11:27:26.240Z,980
2017-12-25T11:28:08.412Z,996
2017-12-25T11:28:51.700Z,1068
2017-12-25T11:29:32.198Z,1108
2017-12-25T11:30:12.545Z,1140
2017-12-25T11:30:52.937Z,1132
2017-12-25T11:31:37.732Z,1032
2017-12-25T11:32:23.603Z,1032
2017-12-25T11:33:03.982Z,1112
2017-12-25T11:33:44.653Z,1208
2017-12-25T11:34:27.016Z,1124